sensor_id;sensor_type;location;lat;lon;timestamp;P1;durP1;ratioP1;P2;durP2;ratioP2
44120;SDS011;29783;52.504;13.478;2023-05-10T01:40:57;6.28;;;4.20;;
44120;SDS011;29783;52.504;13.478;2023-05-10T01:44:10;6.47;;;4.00;;
44120;SDS011;29783;52.504;13.478;2023-05-10T01:46:35;6.82;;;3.97;;
44120;SDS011;29783;52.504;13.478;2023-05-10T01:49:03;6.25;;;3.97;;
44120;SDS011;29783;52.504;13.478;2023-05-10T01:51:47;8.02;;;4.15;;
44120;SDS011;29783;52.504;13.478;2023-05-10T01:54:17;6.53;;;4.00;;
44120;SDS011;29783;52.504;13.478;2023-05-10T01:56:45;3.90;;;3.38;;
44120;SDS011;29783;52.504;13.478;2023-05-10T01:59:18;12.82;;;3.67;;
44120;SDS011;29783;52.504;13.478;2023-05-10T02:01:45;10.30;;;4.15;;
44120;SDS011;29783;52.504;13.478;2023-05-10T02:04:13;6.57;;;3.75;;
44120;SDS011;29783;52.504;13.478;2023-05-10T02:06:43;6.72;;;4.22;;
44120;SDS011;29783;52.504;13.478;2023-05-10T02:09:10;7.60;;;4.25;;
44120;SDS011;29783;52.504;13.478;2023-05-10T02:11:37;9.73;;;4.05;;
44120;SDS011;29783;52.504;13.478;2023-05-10T02:14:07;6.68;;;4.22;;
44120;SDS011;29783;52.504;13.478;2023-05-10T02:16:35;8.50;;;4.22;;
44120;SDS011;29783;52.504;13.478;2023-05-10T02:19:02;12.63;;;3.97;;
44120;SDS011;29783;52.504;13.478;2023-05-10T02:21:29;6.15;;;4.10;;
44120;SDS011;29783;52.504;13.478;2023-05-10T02:23:56;5.72;;;3.60;;
44120;SDS011;29783;52.504;13.478;2023-05-10T02:26:23;7.55;;;3.92;;
44120;SDS011;29783;52.504;13.478;2023-05-10T02:28:50;6.70;;;4.03;;
44120;SDS011;29783;52.504;13.478;2023-05-10T02:31:17;7.60;;;4.53;;
44120;SDS011;29783;52.504;13.478;2023-05-10T02:33:45;6.53;;;3.90;;
44120;SDS011;29783;52.504;13.478;2023-05-10T02:36:12;7.93;;;3.83;;
44120;SDS011;29783;52.504;13.478;2023-05-10T02:38:38;9.20;;;3.92;;
44120;SDS011;29783;52.504;13.478;2023-05-10T02:41:04;4.75;;;3.50;;
44120;SDS011;29783;52.504;13.478;2023-05-10T02:43:33;6.65;;;3.63;;
44120;SDS011;29783;52.504;13.478;2023-05-10T02:45:58;7.82;;;3.63;;
44120;SDS011;29783;52.504;13.478;2023-05-10T02:48:24;4.30;;;3.60;;
44120;SDS011;29783;52.504;13.478;2023-05-10T02:50:50;5.38;;;3.72;;
44120;SDS011;29783;52.504;13.478;2023-05-10T02:53:21;4.80;;;3.55;;
44120;SDS011;29783;52.504;13.478;2023-05-10T02:55:49;5.53;;;3.55;;
44120;SDS011;29783;52.504;13.478;2023-05-10T02:58:16;7.20;;;4.05;;
44120;SDS011;29783;52.504;13.478;2023-05-10T03:00:44;10.75;;;3.75;;
44120;SDS011;29783;52.504;13.478;2023-05-10T03:03:11;6.40;;;4.30;;
44120;SDS011;29783;52.504;13.478;2023-05-10T03:05:37;8.30;;;3.67;;
44120;SDS011;29783;52.504;13.478;2023-05-10T03:08:02;7.93;;;3.20;;
44120;SDS011;29783;52.504;13.478;2023-05-10T03:10:29;6.43;;;4.07;;
44120;SDS011;29783;52.504;13.478;2023-05-10T03:13:01;7.93;;;4.03;;
44120;SDS011;29783;52.504;13.478;2023-05-10T03:15:47;12.30;;;4.32;;
44120;SDS011;29783;52.504;13.478;2023-05-10T03:18:39;6.38;;;3.72;;
44120;SDS011;29783;52.504;13.478;2023-05-10T03:21:15;5.88;;;3.95;;
44120;SDS011;29783;52.504;13.478;2023-05-10T03:23:48;8.80;;;4.20;;
44120;SDS011;29783;52.504;13.478;2023-05-10T03:28:48;8.32;;;3.55;;
44120;SDS011;29783;52.504;13.478;2023-05-10T03:31:15;11.38;;;3.53;;
44120;SDS011;29783;52.504;13.478;2023-05-10T03:33:49;5.75;;;3.58;;
44120;SDS011;29783;52.504;13.478;2023-05-10T03:36:15;9.00;;;4.00;;
44120;SDS011;29783;52.504;13.478;2023-05-10T03:38:41;5.30;;;3.70;;
44120;SDS011;29783;52.504;13.478;2023-05-10T03:41:07;4.82;;;3.58;;
44120;SDS011;29783;52.504;13.478;2023-05-10T03:43:32;5.72;;;4.05;;
44120;SDS011;29783;52.504;13.478;2023-05-10T03:45:58;4.95;;;3.55;;
44120;SDS011;29783;52.504;13.478;2023-05-10T03:48:26;7.10;;;3.80;;
44120;SDS011;29783;52.504;13.478;2023-05-10T03:50:51;5.93;;;3.67;;
44120;SDS011;29783;52.504;13.478;2023-05-10T03:53:17;5.20;;;3.70;;
44120;SDS011;29783;52.504;13.478;2023-05-10T03:55:42;7.70;;;3.75;;
44120;SDS011;29783;52.504;13.478;2023-05-10T03:58:10;6.57;;;3.80;;
44120;SDS011;29783;52.504;13.478;2023-05-10T04:00:36;8.65;;;3.28;;
44120;SDS011;29783;52.504;13.478;2023-05-10T04:03:02;11.88;;;4.35;;
44120;SDS011;29783;52.504;13.478;2023-05-10T04:05:28;7.25;;;3.78;;
44120;SDS011;29783;52.504;13.478;2023-05-10T04:07:54;8.85;;;3.35;;
44120;SDS011;29783;52.504;13.478;2023-05-10T04:10:19;6.82;;;3.45;;
44120;SDS011;29783;52.504;13.478;2023-05-10T04:12:46;8.32;;;3.88;;
44120;SDS011;29783;52.504;13.478;2023-05-10T04:15:11;4.57;;;3.53;;
44120;SDS011;29783;52.504;13.478;2023-05-10T04:17:37;7.43;;;3.80;;
44120;SDS011;29783;52.504;13.478;2023-05-10T04:20:03;8.15;;;3.63;;
44120;SDS011;29783;52.504;13.478;2023-05-10T04:22:29;9.45;;;3.40;;
44120;SDS011;29783;52.504;13.478;2023-05-10T04:24:55;7.80;;;3.47;;
44120;SDS011;29783;52.504;13.478;2023-05-10T04:27:20;5.47;;;3.75;;
44120;SDS011;29783;52.504;13.478;2023-05-10T04:29:46;6.70;;;3.63;;
44120;SDS011;29783;52.504;13.478;2023-05-10T04:32:12;11.75;;;3.28;;
44120;SDS011;29783;52.504;13.478;2023-05-10T04:34:37;16.50;;;3.63;;
44120;SDS011;29783;52.504;13.478;2023-05-10T04:37:03;5.35;;;3.20;;
44120;SDS011;29783;52.504;13.478;2023-05-10T04:39:28;7.05;;;3.17;;
44120;SDS011;29783;52.504;13.478;2023-05-10T04:41:54;6.63;;;3.05;;
44120;SDS011;29783;52.504;13.478;2023-05-10T04:44:20;11.25;;;3.20;;
44120;SDS011;29783;52.504;13.478;2023-05-10T04:46:45;5.10;;;3.10;;
44120;SDS011;29783;52.504;13.478;2023-05-10T04:49:11;11.70;;;3.20;;
44120;SDS011;29783;52.504;13.478;2023-05-10T04:51:37;6.28;;;3.00;;
44120;SDS011;29783;52.504;13.478;2023-05-10T04:54:02;5.10;;;2.85;;
44120;SDS011;29783;52.504;13.478;2023-05-10T04:56:28;7.25;;;2.80;;
44120;SDS011;29783;52.504;13.478;2023-05-10T04:58:53;10.85;;;2.67;;
44120;SDS011;29783;52.504;13.478;2023-05-10T05:01:19;8.57;;;3.25;;
44120;SDS011;29783;52.504;13.478;2023-05-10T05:03:45;6.80;;;3.25;;
44120;SDS011;29783;52.504;13.478;2023-05-10T05:06:10;6.60;;;3.30;;
44120;SDS011;29783;52.504;13.478;2023-05-10T05:08:36;4.57;;;3.20;;
44120;SDS011;29783;52.504;13.478;2023-05-10T05:11:02;5.75;;;3.22;;
44120;SDS011;29783;52.504;13.478;2023-05-10T05:13:27;6.05;;;2.80;;
44120;SDS011;29783;52.504;13.478;2023-05-10T05:15:53;15.02;;;2.90;;
44120;SDS011;29783;52.504;13.478;2023-05-10T05:18:19;9.43;;;3.05;;
44120;SDS011;29783;52.504;13.478;2023-05-10T05:20:45;12.68;;;3.22;;
44120;SDS011;29783;52.504;13.478;2023-05-10T05:23:10;10.68;;;2.80;;
44120;SDS011;29783;52.504;13.478;2023-05-10T05:25:36;7.60;;;2.70;;
44120;SDS011;29783;52.504;13.478;2023-05-10T05:28:02;9.90;;;3.10;;
44120;SDS011;29783;52.504;13.478;2023-05-10T05:30:27;8.07;;;2.95;;
44120;SDS011;29783;52.504;13.478;2023-05-10T05:32:53;6.55;;;2.45;;
44120;SDS011;29783;52.504;13.478;2023-05-10T05:35:18;4.55;;;2.85;;
44120;SDS011;29783;52.504;13.478;2023-05-10T05:37:44;16.42;;;3.10;;
44120;SDS011;29783;52.504;13.478;2023-05-10T05:40:12;8.13;;;2.63;;
44120;SDS011;29783;52.504;13.478;2023-05-10T05:42:38;3.83;;;2.60;;
44120;SDS011;29783;52.504;13.478;2023-05-10T05:45:04;5.25;;;2.90;;
44120;SDS011;29783;52.504;13.478;2023-05-10T05:47:30;4.60;;;2.60;;
44120;SDS011;29783;52.504;13.478;2023-05-10T05:49:56;3.45;;;2.25;;
44120;SDS011;29783;52.504;13.478;2023-05-10T05:52:21;4.80;;;2.45;;
44120;SDS011;29783;52.504;13.478;2023-05-10T05:54:47;6.03;;;2.35;;
44120;SDS011;29783;52.504;13.478;2023-05-10T05:57:13;5.22;;;2.45;;
44120;SDS011;29783;52.504;13.478;2023-05-10T05:59:38;5.25;;;2.35;;
44120;SDS011;29783;52.504;13.478;2023-05-10T06:02:08;7.47;;;2.22;;
44120;SDS011;29783;52.504;13.478;2023-05-10T06:04:34;9.20;;;2.63;;
44120;SDS011;29783;52.504;13.478;2023-05-10T06:07:00;7.10;;;2.17;;
44120;SDS011;29783;52.504;13.478;2023-05-10T06:09:25;9.15;;;2.50;;
44120;SDS011;29783;52.504;13.478;2023-05-10T06:11:51;5.22;;;2.20;;
44120;SDS011;29783;52.504;13.478;2023-05-10T06:14:17;3.95;;;1.90;;
44120;SDS011;29783;52.504;13.478;2023-05-10T06:16:45;7.85;;;2.25;;
44120;SDS011;29783;52.504;13.478;2023-05-10T06:19:10;4.18;;;2.05;;
44120;SDS011;29783;52.504;13.478;2023-05-10T06:21:36;11.63;;;2.00;;
44120;SDS011;29783;52.504;13.478;2023-05-10T06:24:03;3.97;;;2.10;;
44120;SDS011;29783;52.504;13.478;2023-05-10T06:26:35;9.82;;;2.28;;
44120;SDS011;29783;52.504;13.478;2023-05-10T06:29:01;7.15;;;2.50;;
44120;SDS011;29783;52.504;13.478;2023-05-10T06:31:26;6.05;;;2.30;;
44120;SDS011;29783;52.504;13.478;2023-05-10T06:33:52;6.63;;;2.20;;
44120;SDS011;29783;52.504;13.478;2023-05-10T06:36:17;4.78;;;2.33;;
44120;SDS011;29783;52.504;13.478;2023-05-10T06:38:43;4.60;;;1.83;;
44120;SDS011;29783;52.504;13.478;2023-05-10T06:41:09;5.55;;;2.17;;
44120;SDS011;29783;52.504;13.478;2023-05-10T06:43:34;9.38;;;2.38;;
44120;SDS011;29783;52.504;13.478;2023-05-10T06:46:00;13.05;;;2.00;;
44120;SDS011;29783;52.504;13.478;2023-05-10T06:48:26;7.50;;;1.98;;
44120;SDS011;29783;52.504;13.478;2023-05-10T06:50:51;4.28;;;2.00;;
44120;SDS011;29783;52.504;13.478;2023-05-10T06:53:17;4.78;;;2.20;;
44120;SDS011;29783;52.504;13.478;2023-05-10T06:55:42;6.85;;;2.00;;
44120;SDS011;29783;52.504;13.478;2023-05-10T06:58:08;7.30;;;2.10;;
44120;SDS011;29783;52.504;13.478;2023-05-10T07:00:34;5.50;;;2.05;;
44120;SDS011;29783;52.504;13.478;2023-05-10T07:02:59;3.83;;;2.20;;
44120;SDS011;29783;52.504;13.478;2023-05-10T07:05:25;4.75;;;2.08;;
44120;SDS011;29783;52.504;13.478;2023-05-10T07:07:52;3.92;;;1.92;;
44120;SDS011;29783;52.504;13.478;2023-05-10T07:10:18;6.82;;;1.98;;
44120;SDS011;29783;52.504;13.478;2023-05-10T07:12:44;8.40;;;2.05;;
44120;SDS011;29783;52.504;13.478;2023-05-10T07:15:09;2.67;;;1.77;;
44120;SDS011;29783;52.504;13.478;2023-05-10T07:17:35;7.93;;;2.35;;
44120;SDS011;29783;52.504;13.478;2023-05-10T07:20:01;3.70;;;1.95;;
44120;SDS011;29783;52.504;13.478;2023-05-10T07:22:26;8.02;;;2.00;;
44120;SDS011;29783;52.504;13.478;2023-05-10T07:24:52;10.05;;;2.00;;
44120;SDS011;29783;52.504;13.478;2023-05-10T07:27:18;6.75;;;2.08;;
44120;SDS011;29783;52.504;13.478;2023-05-10T07:29:43;1.95;;;1.70;;
44120;SDS011;29783;52.504;13.478;2023-05-10T07:32:09;9.52;;;2.03;;
44120;SDS011;29783;52.504;13.478;2023-05-10T07:34:34;2.92;;;1.52;;
44120;SDS011;29783;52.504;13.478;2023-05-10T07:37:00;5.43;;;1.98;;
44120;SDS011;29783;52.504;13.478;2023-05-10T07:39:27;5.65;;;2.00;;
44120;SDS011;29783;52.504;13.478;2023-05-10T07:41:53;4.88;;;2.30;;
44120;SDS011;29783;52.504;13.478;2023-05-10T08:19:04;5.72;;;2.20;;
44120;SDS011;29783;52.504;13.478;2023-05-10T08:21:30;4.90;;;1.80;;
44120;SDS011;29783;52.504;13.478;2023-05-10T08:23:56;3.25;;;1.90;;
44120;SDS011;29783;52.504;13.478;2023-05-10T08:26:22;1.95;;;1.33;;
44120;SDS011;29783;52.504;13.478;2023-05-10T08:28:48;4.20;;;1.80;;
44120;SDS011;29783;52.504;13.478;2023-05-10T08:31:14;8.48;;;2.05;;
44120;SDS011;29783;52.504;13.478;2023-05-10T08:33:40;11.95;;;2.03;;
44120;SDS011;29783;52.504;13.478;2023-05-10T08:36:06;5.65;;;2.05;;
44120;SDS011;29783;52.504;13.478;2023-05-10T08:38:31;6.55;;;1.90;;
44120;SDS011;29783;52.504;13.478;2023-05-10T08:40:57;4.75;;;1.90;;
44120;SDS011;29783;52.504;13.478;2023-05-10T08:43:26;3.63;;;2.03;;
44120;SDS011;29783;52.504;13.478;2023-05-10T08:45:53;9.10;;;1.80;;
44120;SDS011;29783;52.504;13.478;2023-05-10T08:48:20;7.30;;;2.08;;
44120;SDS011;29783;52.504;13.478;2023-05-10T08:50:49;4.85;;;1.80;;
44120;SDS011;29783;52.504;13.478;2023-05-10T08:53:19;4.20;;;1.73;;
44120;SDS011;29783;52.504;13.478;2023-05-10T08:55:46;7.65;;;1.70;;
44120;SDS011;29783;52.504;13.478;2023-05-10T08:58:12;8.90;;;2.13;;
44120;SDS011;29783;52.504;13.478;2023-05-10T09:00:37;4.00;;;1.75;;
44120;SDS011;29783;52.504;13.478;2023-05-10T09:03:03;4.53;;;1.80;;
44120;SDS011;29783;52.504;13.478;2023-05-10T09:05:30;2.00;;;1.80;;
44120;SDS011;29783;52.504;13.478;2023-05-10T09:07:55;4.05;;;1.73;;
44120;SDS011;29783;52.504;13.478;2023-05-10T09:10:21;3.45;;;1.73;;
44120;SDS011;29783;52.504;13.478;2023-05-10T09:12:50;6.90;;;1.80;;
44120;SDS011;29783;52.504;13.478;2023-05-10T09:15:17;3.55;;;1.67;;
44120;SDS011;29783;52.504;13.478;2023-05-10T09:17:44;7.55;;;2.10;;
44120;SDS011;29783;52.504;13.478;2023-05-10T09:20:10;3.42;;;1.90;;
44120;SDS011;29783;52.504;13.478;2023-05-10T09:22:36;7.38;;;2.10;;
44120;SDS011;29783;52.504;13.478;2023-05-10T09:27:43;4.97;;;2.20;;
44120;SDS011;29783;52.504;13.478;2023-05-10T09:30:11;9.15;;;2.10;;
44120;SDS011;29783;52.504;13.478;2023-05-10T09:32:50;4.90;;;1.95;;
44120;SDS011;29783;52.504;13.478;2023-05-10T09:35:18;3.83;;;1.80;;
44120;SDS011;29783;52.504;13.478;2023-05-10T09:37:49;5.60;;;1.90;;
44120;SDS011;29783;52.504;13.478;2023-05-10T09:40:17;5.82;;;1.90;;
44120;SDS011;29783;52.504;13.478;2023-05-10T09:42:54;6.97;;;2.08;;
44120;SDS011;29783;52.504;13.478;2023-05-10T09:45:23;4.28;;;1.88;;
44120;SDS011;29783;52.504;13.478;2023-05-10T09:47:50;20.33;;;2.28;;
44120;SDS011;29783;52.504;13.478;2023-05-10T09:50:16;4.68;;;1.95;;
44120;SDS011;29783;52.504;13.478;2023-05-10T09:52:52;10.00;;;1.92;;
44120;SDS011;29783;52.504;13.478;2023-05-10T09:55:37;11.25;;;1.70;;
44120;SDS011;29783;52.504;13.478;2023-05-10T09:58:03;7.88;;;2.67;;
44120;SDS011;29783;52.504;13.478;2023-05-10T10:00:41;4.15;;;2.40;;
44120;SDS011;29783;52.504;13.478;2023-05-10T10:03:12;7.15;;;1.92;;
44120;SDS011;29783;52.504;13.478;2023-05-10T10:05:39;6.70;;;1.70;;
44120;SDS011;29783;52.504;13.478;2023-05-10T10:08:07;4.00;;;1.83;;
44120;SDS011;29783;52.504;13.478;2023-05-10T10:10:33;2.97;;;1.63;;
44120;SDS011;29783;52.504;13.478;2023-05-10T10:12:59;3.55;;;1.80;;
44120;SDS011;29783;52.504;13.478;2023-05-10T10:15:25;8.18;;;1.70;;
44120;SDS011;29783;52.504;13.478;2023-05-10T10:17:51;5.03;;;1.52;;
44120;SDS011;29783;52.504;13.478;2023-05-10T10:20:18;7.05;;;2.08;;
44120;SDS011;29783;52.504;13.478;2023-05-10T10:22:46;5.60;;;1.65;;
44120;SDS011;29783;52.504;13.478;2023-05-10T10:25:12;8.18;;;1.70;;
44120;SDS011;29783;52.504;13.478;2023-05-10T10:35:58;2.45;;;1.50;;
44120;SDS011;29783;52.504;13.478;2023-05-10T10:38:35;12.07;;;1.60;;
44120;SDS011;29783;52.504;13.478;2023-05-10T10:41:06;7.10;;;1.95;;
44120;SDS011;29783;52.504;13.478;2023-05-10T10:43:34;3.55;;;1.50;;
44120;SDS011;29783;52.504;13.478;2023-05-10T10:46:10;6.63;;;1.55;;
44120;SDS011;29783;52.504;13.478;2023-05-10T10:48:40;4.85;;;1.70;;
44120;SDS011;29783;52.504;13.478;2023-05-10T10:51:11;2.42;;;1.63;;
44120;SDS011;29783;52.504;13.478;2023-05-10T10:53:38;3.65;;;1.95;;
44120;SDS011;29783;52.504;13.478;2023-05-10T10:56:09;3.08;;;1.90;;
44120;SDS011;29783;52.504;13.478;2023-05-10T10:58:37;4.72;;;1.45;;
44120;SDS011;29783;52.504;13.478;2023-05-10T11:01:16;5.80;;;1.65;;
44120;SDS011;29783;52.504;13.478;2023-05-10T11:06:30;5.22;;;1.45;;
44120;SDS011;29783;52.504;13.478;2023-05-10T11:09:07;7.93;;;1.52;;
44120;SDS011;29783;52.504;13.478;2023-05-10T11:11:52;3.83;;;1.55;;
44120;SDS011;29783;52.504;13.478;2023-05-10T11:14:23;5.22;;;1.50;;
44120;SDS011;29783;52.504;13.478;2023-05-10T11:16:49;5.78;;;1.60;;
44120;SDS011;29783;52.504;13.478;2023-05-10T11:19:15;5.68;;;1.73;;
44120;SDS011;29783;52.504;13.478;2023-05-10T11:21:49;4.18;;;1.60;;
44120;SDS011;29783;52.504;13.478;2023-05-10T11:26:50;3.78;;;1.55;;
44120;SDS011;29783;52.504;13.478;2023-05-10T11:29:16;5.75;;;1.50;;
44120;SDS011;29783;52.504;13.478;2023-05-10T11:31:43;7.05;;;1.50;;
44120;SDS011;29783;52.504;13.478;2023-05-10T11:34:10;7.85;;;1.38;;
44120;SDS011;29783;52.504;13.478;2023-05-10T11:36:36;11.43;;;1.67;;
44120;SDS011;29783;52.504;13.478;2023-05-10T11:39:02;7.70;;;1.73;;
44120;SDS011;29783;52.504;13.478;2023-05-10T11:41:29;7.18;;;1.60;;
44120;SDS011;29783;52.504;13.478;2023-05-10T11:43:55;7.35;;;1.60;;
44120;SDS011;29783;52.504;13.478;2023-05-10T11:46:23;7.60;;;1.80;;
44120;SDS011;29783;52.504;13.478;2023-05-10T11:48:52;7.45;;;1.70;;
44120;SDS011;29783;52.504;13.478;2023-05-10T11:51:20;13.27;;;2.15;;
44120;SDS011;29783;52.504;13.478;2023-05-10T11:53:50;7.13;;;1.70;;
44120;SDS011;29783;52.504;13.478;2023-05-10T11:56:17;9.25;;;1.48;;
44120;SDS011;29783;52.504;13.478;2023-05-10T11:58:43;9.68;;;1.30;;
44120;SDS011;29783;52.504;13.478;2023-05-10T12:01:09;12.15;;;1.50;;
44120;SDS011;29783;52.504;13.478;2023-05-10T12:03:35;9.48;;;1.83;;
44120;SDS011;29783;52.504;13.478;2023-05-10T12:06:02;9.32;;;1.58;;
44120;SDS011;29783;52.504;13.478;2023-05-10T12:08:29;8.73;;;1.80;;
44120;SDS011;29783;52.504;13.478;2023-05-10T12:11:08;13.05;;;1.60;;
44120;SDS011;29783;52.504;13.478;2023-05-10T12:13:39;21.65;;;1.90;;
44120;SDS011;29783;52.504;13.478;2023-05-10T12:16:12;6.65;;;1.40;;
44120;SDS011;29783;52.504;13.478;2023-05-10T12:18:41;5.20;;;1.55;;
44120;SDS011;29783;52.504;13.478;2023-05-10T12:21:09;3.65;;;1.42;;
44120;SDS011;29783;52.504;13.478;2023-05-10T12:23:36;13.70;;;2.05;;
44120;SDS011;29783;52.504;13.478;2023-05-10T12:26:02;3.40;;;1.42;;
44120;SDS011;29783;52.504;13.478;2023-05-10T12:28:32;8.55;;;1.50;;
44120;SDS011;29783;52.504;13.478;2023-05-10T12:31:01;4.60;;;1.23;;
44120;SDS011;29783;52.504;13.478;2023-05-10T12:33:27;1.65;;;1.13;;
44120;SDS011;29783;52.504;13.478;2023-05-10T12:36:03;3.70;;;1.40;;
44120;SDS011;29783;52.504;13.478;2023-05-10T12:38:33;8.10;;;1.20;;
44120;SDS011;29783;52.504;13.478;2023-05-10T12:41:03;5.87;;;1.47;;
44120;SDS011;29783;52.504;13.478;2023-05-10T12:43:31;6.05;;;1.42;;
44120;SDS011;29783;52.504;13.478;2023-05-10T12:45:57;5.60;;;1.20;;
44120;SDS011;29783;52.504;13.478;2023-05-10T12:48:23;10.93;;;1.40;;
44120;SDS011;29783;52.504;13.478;2023-05-10T12:50:49;4.30;;;1.13;;
44120;SDS011;29783;52.504;13.478;2023-05-10T12:53:15;2.75;;;1.33;;
44120;SDS011;29783;52.504;13.478;2023-05-10T12:55:41;7.70;;;1.10;;
44120;SDS011;29783;52.504;13.478;2023-05-10T12:58:07;4.28;;;1.20;;
44120;SDS011;29783;52.504;13.478;2023-05-10T13:00:33;2.55;;;1.40;;
44120;SDS011;29783;52.504;13.478;2023-05-10T13:02:59;4.50;;;1.27;;
44120;SDS011;29783;52.504;13.478;2023-05-10T13:05:25;7.75;;;2.13;;
44120;SDS011;29783;52.504;13.478;2023-05-10T13:07:51;7.28;;;1.40;;
44120;SDS011;29783;52.504;13.478;2023-05-10T13:10:16;4.95;;;1.10;;
44120;SDS011;29783;52.504;13.478;2023-05-10T13:12:42;5.13;;;1.00;;
44120;SDS011;29783;52.504;13.478;2023-05-10T13:15:08;11.48;;;1.40;;
44120;SDS011;29783;52.504;13.478;2023-05-10T13:17:34;3.90;;;1.70;;
44120;SDS011;29783;52.504;13.478;2023-05-10T13:19:59;4.03;;;1.13;;
44120;SDS011;29783;52.504;13.478;2023-05-10T13:22:27;7.53;;;1.40;;
44120;SDS011;29783;52.504;13.478;2023-05-10T13:24:52;12.73;;;1.20;;
44120;SDS011;29783;52.504;13.478;2023-05-10T13:27:19;3.95;;;1.08;;
44120;SDS011;29783;52.504;13.478;2023-05-10T13:29:45;2.25;;;1.02;;
44120;SDS011;29783;52.504;13.478;2023-05-10T13:32:10;7.65;;;1.35;;
44120;SDS011;29783;52.504;13.478;2023-05-10T13:34:36;4.00;;;1.40;;
44120;SDS011;29783;52.504;13.478;2023-05-10T13:37:02;5.35;;;1.20;;
44120;SDS011;29783;52.504;13.478;2023-05-10T13:39:28;6.15;;;1.40;;
44120;SDS011;29783;52.504;13.478;2023-05-10T13:41:58;4.22;;;1.10;;
44120;SDS011;29783;52.504;13.478;2023-05-10T13:44:24;3.60;;;1.00;;
44120;SDS011;29783;52.504;13.478;2023-05-10T13:46:50;3.65;;;1.02;;
44120;SDS011;29783;52.504;13.478;2023-05-10T13:49:15;6.15;;;1.33;;
44120;SDS011;29783;52.504;13.478;2023-05-10T13:51:41;10.43;;;1.20;;
44120;SDS011;29783;52.504;13.478;2023-05-10T13:54:08;5.82;;;0.95;;
44120;SDS011;29783;52.504;13.478;2023-05-10T13:56:34;4.65;;;1.15;;
44120;SDS011;29783;52.504;13.478;2023-05-10T13:58:59;2.22;;;1.05;;
44120;SDS011;29783;52.504;13.478;2023-05-10T14:01:25;5.35;;;1.00;;
44120;SDS011;29783;52.504;13.478;2023-05-10T14:03:51;5.30;;;1.20;;
44120;SDS011;29783;52.504;13.478;2023-05-10T14:06:17;4.82;;;1.10;;
44120;SDS011;29783;52.504;13.478;2023-05-10T14:08:42;4.68;;;0.95;;
44120;SDS011;29783;52.504;13.478;2023-05-10T14:11:08;12.38;;;1.38;;
44120;SDS011;29783;52.504;13.478;2023-05-10T14:13:34;5.40;;;1.10;;
44120;SDS011;29783;52.504;13.478;2023-05-10T14:16:00;4.53;;;1.10;;
44120;SDS011;29783;52.504;13.478;2023-05-10T14:18:26;4.65;;;1.10;;
44120;SDS011;29783;52.504;13.478;2023-05-10T14:20:52;2.83;;;1.10;;
44120;SDS011;29783;52.504;13.478;2023-05-10T14:23:22;9.57;;;1.23;;
44120;SDS011;29783;52.504;13.478;2023-05-10T14:25:53;5.15;;;0.98;;
44120;SDS011;29783;52.504;13.478;2023-05-10T14:28:19;3.58;;;1.13;;
44120;SDS011;29783;52.504;13.478;2023-05-10T14:30:45;4.57;;;1.10;;
44120;SDS011;29783;52.504;13.478;2023-05-10T14:33:11;5.45;;;1.08;;
44120;SDS011;29783;52.504;13.478;2023-05-10T14:35:37;2.63;;;0.90;;
44120;SDS011;29783;52.504;13.478;2023-05-10T14:38:03;6.05;;;1.48;;
44120;SDS011;29783;52.504;13.478;2023-05-10T14:40:29;4.68;;;1.13;;
44120;SDS011;29783;52.504;13.478;2023-05-10T14:42:55;4.40;;;1.10;;
44120;SDS011;29783;52.504;13.478;2023-05-10T14:45:21;3.50;;;1.20;;
44120;SDS011;29783;52.504;13.478;2023-05-10T14:47:47;3.63;;;1.25;;
44120;SDS011;29783;52.504;13.478;2023-05-10T14:50:14;3.78;;;1.10;;
44120;SDS011;29783;52.504;13.478;2023-05-10T14:52:40;6.95;;;1.27;;
44120;SDS011;29783;52.504;13.478;2023-05-10T14:55:06;10.23;;;1.10;;
44120;SDS011;29783;52.504;13.478;2023-05-10T14:57:32;6.75;;;1.20;;
44120;SDS011;29783;52.504;13.478;2023-05-10T14:59:58;4.80;;;1.13;;
44120;SDS011;29783;52.504;13.478;2023-05-10T15:02:24;5.07;;;1.10;;
44120;SDS011;29783;52.504;13.478;2023-05-10T15:04:52;2.67;;;1.10;;
44120;SDS011;29783;52.504;13.478;2023-05-10T15:07:18;4.95;;;1.02;;
44120;SDS011;29783;52.504;13.478;2023-05-10T15:09:44;3.20;;;1.10;;
44120;SDS011;29783;52.504;13.478;2023-05-10T15:12:10;1.70;;;1.20;;
44120;SDS011;29783;52.504;13.478;2023-05-10T15:14:35;3.90;;;1.65;;
44120;SDS011;29783;52.504;13.478;2023-05-10T15:17:01;6.57;;;1.25;;
44120;SDS011;29783;52.504;13.478;2023-05-10T15:19:28;2.17;;;1.13;;
44120;SDS011;29783;52.504;13.478;2023-05-10T15:21:55;4.90;;;1.30;;
44120;SDS011;29783;52.504;13.478;2023-05-10T15:24:20;8.73;;;1.80;;
44120;SDS011;29783;52.504;13.478;2023-05-10T15:26:46;6.47;;;1.58;;
44120;SDS011;29783;52.504;13.478;2023-05-10T15:29:12;4.38;;;1.52;;
44120;SDS011;29783;52.504;13.478;2023-05-10T15:31:44;5.57;;;1.70;;
44120;SDS011;29783;52.504;13.478;2023-05-10T15:34:14;4.25;;;1.33;;
44120;SDS011;29783;52.504;13.478;2023-05-10T15:36:39;4.25;;;1.45;;
44120;SDS011;29783;52.504;13.478;2023-05-10T15:39:05;10.32;;;1.60;;
44120;SDS011;29783;52.504;13.478;2023-05-10T15:41:31;4.22;;;1.40;;
44120;SDS011;29783;52.504;13.478;2023-05-10T15:43:57;5.05;;;1.50;;
44120;SDS011;29783;52.504;13.478;2023-05-10T15:46:24;4.18;;;1.25;;
44120;SDS011;29783;52.504;13.478;2023-05-10T15:48:51;4.47;;;1.20;;
44120;SDS011;29783;52.504;13.478;2023-05-10T15:51:16;3.35;;;1.40;;
44120;SDS011;29783;52.504;13.478;2023-05-10T15:53:43;4.38;;;1.30;;
44120;SDS011;29783;52.504;13.478;2023-05-10T15:56:09;7.45;;;1.30;;
44120;SDS011;29783;52.504;13.478;2023-05-10T15:58:35;2.55;;;1.30;;
44120;SDS011;29783;52.504;13.478;2023-05-10T16:01:02;7.68;;;1.30;;
44120;SDS011;29783;52.504;13.478;2023-05-10T16:03:29;4.97;;;1.20;;
44120;SDS011;29783;52.504;13.478;2023-05-10T16:05:55;2.97;;;1.60;;
44120;SDS011;29783;52.504;13.478;2023-05-10T16:08:21;14.50;;;1.70;;
44120;SDS011;29783;52.504;13.478;2023-05-10T16:10:46;9.90;;;1.27;;
44120;SDS011;29783;52.504;13.478;2023-05-10T16:13:13;5.03;;;1.38;;
44120;SDS011;29783;52.504;13.478;2023-05-10T16:15:39;4.35;;;1.10;;
44120;SDS011;29783;52.504;13.478;2023-05-10T16:18:06;4.88;;;1.27;;
44120;SDS011;29783;52.504;13.478;2023-05-10T16:20:31;4.57;;;0.95;;
44120;SDS011;29783;52.504;13.478;2023-05-10T16:22:59;6.43;;;1.42;;
44120;SDS011;29783;52.504;13.478;2023-05-10T16:25:30;6.53;;;1.33;;
44120;SDS011;29783;52.504;13.478;2023-05-10T16:27:56;2.97;;;1.25;;
44120;SDS011;29783;52.504;13.478;2023-05-10T16:30:22;4.80;;;1.40;;
44120;SDS011;29783;52.504;13.478;2023-05-10T16:32:53;2.95;;;1.25;;
44120;SDS011;29783;52.504;13.478;2023-05-10T16:35:19;9.40;;;1.42;;
44120;SDS011;29783;52.504;13.478;2023-05-10T16:37:45;2.75;;;1.30;;
44120;SDS011;29783;52.504;13.478;2023-05-10T16:40:11;3.70;;;1.45;;
44120;SDS011;29783;52.504;13.478;2023-05-10T16:42:36;3.85;;;1.40;;
44120;SDS011;29783;52.504;13.478;2023-05-10T16:45:02;5.45;;;1.67;;
44120;SDS011;29783;52.504;13.478;2023-05-10T16:47:34;8.98;;;2.22;;
44120;SDS011;29783;52.504;13.478;2023-05-10T16:50:01;6.03;;;2.10;;
44120;SDS011;29783;52.504;13.478;2023-05-10T16:52:28;4.82;;;2.08;;
44120;SDS011;29783;52.504;13.478;2023-05-10T16:54:54;4.00;;;2.30;;
44120;SDS011;29783;52.504;13.478;2023-05-10T16:57:20;10.70;;;2.33;;
44120;SDS011;29783;52.504;13.478;2023-05-10T16:59:46;5.57;;;2.53;;
44120;SDS011;29783;52.504;13.478;2023-05-10T17:02:12;5.70;;;2.63;;
44120;SDS011;29783;52.504;13.478;2023-05-10T17:04:38;10.13;;;2.65;;
44120;SDS011;29783;52.504;13.478;2023-05-10T17:07:04;13.57;;;2.90;;